createdAt,value
2019-04-20T00:01:30.288Z,100977.78
2019-04-20T00:03:57.172Z,100970.33
2019-04-20T00:06:31.659Z,100971.76
2019-04-20T00:09:07.389Z,100966.61
2019-04-20T00:11:47.593Z,100966.67
2019-04-20T00:14:13.740Z,100964.90
2019-04-20T00:16:38.076Z,100965.59
2019-04-20T00:19:10.523Z,100963.34
2019-04-20T00:21:47.269Z,100960.52
2019-04-20T00:24:24.731Z,100961.25
2019-04-20T00:27:20.733Z,100965.91
2019-04-20T00:29:35.456Z,100957.38
2019-04-20T00:32:00.553Z,100960.35
2019-04-20T00:34:26.455Z,100958.13
2019-04-20T00:36:54.096Z,100954.23
2019-04-20T00:39:23.929Z,100956.66
2019-04-20T00:42:01.077Z,100960.64
2019-04-20T00:44:31.965Z,100955.36
2019-04-20T00:47:13.213Z,100951.78
2019-04-20T00:49:48.621Z,100952.10
2019-04-20T00:52:27.523Z,100948.69
2019-04-20T00:54:36.903Z,100945.83
2019-04-20T00:57:21.747Z,100945.66
2019-04-20T01:00:03.617Z,100947.52
2019-04-20T01:02:20.852Z,100948.66
2019-04-20T01:04:58.383Z,100951.07
2019-04-20T01:07:36.041Z,100951.85
2019-04-20T01:10:08.973Z,100952.27
2019-04-20T01:12:40.630Z,100958.32
2019-04-20T01:15:25.624Z,100953.02
2019-04-20T01:17:44.929Z,100958.05
2019-04-20T01:20:15.631Z,100954.47
2019-04-20T01:22:53.740Z,100958.92
2019-04-20T01:25:25.570Z,100959.27
2019-04-20T01:28:09.089Z,100957.06
2019-04-20T01:30:32.021Z,100953.29
2019-04-20T01:33:09.011Z,100957.38
2019-04-20T01:35:43.909Z,100961.23
2019-04-20T01:38:16.897Z,100959.34
2019-04-20T01:40:31.634Z,100957.41
2019-04-20T01:43:01.603Z,100959.42
2019-04-20T01:45:35.698Z,100963.39
2019-04-20T01:48:03.434Z,100966.14
2019-04-20T01:50:37.155Z,100961.38
2019-04-20T01:53:21.241Z,100969.77
2019-04-20T01:56:01.343Z,100964.50
2019-04-20T01:58:54.966Z,100962.11
2019-04-20T02:04:03.322Z,100964.56
2019-04-20T02:06:42.367Z,100962.53
2019-04-20T02:09:16.693Z,100967.83
2019-04-20T02:11:50.380Z,100963.70
2019-04-20T02:14:30.760Z,100961.73
2019-04-20T02:17:06.562Z,100965.15
2019-04-20T02:19:44.191Z,100962.21
2019-04-20T02:22:13.680Z,100966.75
2019-04-20T02:24:34.009Z,100963.33
2019-04-20T02:27:06.189Z,100963.95
2019-04-20T02:30:07.074Z,100962.77
2019-04-20T02:32:47.151Z,100960.48
2019-04-20T02:35:16.801Z,100965.34
2019-04-20T02:38:03.134Z,100960.07
2019-04-20T02:40:35.214Z,100956.47
2019-04-20T02:42:59.224Z,100962.08
2019-04-20T02:45:38.815Z,100964.27
2019-04-20T02:50:38.002Z,100969.37
2019-04-20T02:53:05.495Z,100968.45
2019-04-20T02:55:44.838Z,100965.06
2019-04-20T03:00:35.237Z,100963.00
2019-04-20T03:03:06.206Z,100961.89
2019-04-20T03:05:41.165Z,100959.11
2019-04-20T03:08:20.589Z,100957.31
2019-04-20T03:11:01.323Z,100963.59
2019-04-20T03:13:32.332Z,100960.98
2019-04-20T03:16:08.681Z,100958.42
2019-04-20T03:18:37.322Z,100957.79
2019-04-20T03:21:08.417Z,100952.69
2019-04-20T03:23:45.623Z,100952.77
2019-04-20T03:26:21.347Z,100954.36
2019-04-20T03:28:58.898Z,100955.05
2019-04-20T03:31:56.451Z,100954.09
2019-04-20T03:34:50.484Z,100951.86
2019-04-20T03:36:50.030Z,100951.38
2019-04-20T03:39:09.793Z,100953.59
2019-04-20T03:41:31.009Z,100947.61
2019-04-20T03:44:00.903Z,100954.77
2019-04-20T03:46:36.617Z,100951.30
2019-04-20T03:49:15.756Z,100952.06
2019-04-20T03:51:53.487Z,100952.66
2019-04-20T03:54:32.096Z,100954.74
2019-04-20T04:00:04.683Z,100955.37
2019-04-20T04:03:00.422Z,100956.19
2019-04-20T04:05:13.521Z,100949.16
2019-04-20T04:07:38.091Z,100948.59
2019-04-20T04:10:17.284Z,100946.52
2019-04-20T04:13:14.705Z,100950.24
2019-04-20T04:15:52.284Z,100948.10
2019-04-20T04:18:26.125Z,100946.78
2019-04-20T04:20:59.057Z,100950.61
2019-04-20T04:23:40.797Z,100945.07
2019-04-20T04:26:09.730Z,100949.81
2019-04-20T04:28:40.882Z,100956.03
2019-04-20T04:31:12.060Z,100950.93
2019-04-20T04:36:15.517Z,100959.20
2019-04-20T04:38:53.485Z,100962.70
2019-04-20T04:41:23.974Z,100964.67
2019-04-20T04:43:49.829Z,100963.84
2019-04-20T04:46:04.016Z,100965.42
2019-04-20T04:48:37.254Z,100967.04
2019-04-20T04:51:29.435Z,100967.32
2019-04-20T04:54:05.837Z,100971.64
2019-04-20T04:56:27.471Z,100972.94
2019-04-20T04:58:58.192Z,100977.43
2019-04-20T05:01:31.837Z,100979.53
2019-04-20T05:04:21.605Z,100983.06
2019-04-20T05:06:45.816Z,100973.28
2019-04-20T05:09:06.027Z,100976.55
2019-04-20T05:11:34.976Z,100981.21
2019-04-20T05:14:10.238Z,100981.53
2019-04-20T05:16:49.924Z,100981.72
2019-04-20T05:19:29.566Z,100991.02
2019-04-20T05:22:04.084Z,100988.63
2019-04-20T05:24:30.491Z,100992.61
2019-04-20T05:27:07.190Z,100995.20
2019-04-20T05:29:24.918Z,100997.61
2019-04-20T05:31:57.172Z,100990.28
2019-04-20T05:34:45.337Z,100987.03
2019-04-20T05:37:24.034Z,100991.39
2019-04-20T05:39:48.589Z,100990.28
2019-04-20T05:42:18.905Z,100987.80
2019-04-20T05:44:49.839Z,100986.91
2019-04-20T05:47:19.538Z,100983.73
2019-04-20T05:49:49.958Z,100988.47
2019-04-20T05:52:43.866Z,100988.03
2019-04-20T05:54:58.407Z,100987.92
2019-04-20T06:00:03.596Z,100995.41
2019-04-20T06:02:29.096Z,100997.50
2019-04-20T06:07:31.088Z,100991.06
2019-04-20T06:10:07.825Z,100993.56
2019-04-20T06:12:37.340Z,100995.70
2019-04-20T06:15:15.630Z,100994.46
2019-04-20T06:18:01.062Z,100999.11
2019-04-20T06:20:37.943Z,100996.03
2019-04-20T06:23:28.925Z,101002.25
2019-04-20T06:26:17.188Z,101006.19
2019-04-20T06:28:26.826Z,101003.59
2019-04-20T06:30:52.800Z,101010.27
2019-04-20T06:34:27.596Z,101008.05
2019-04-20T06:39:21.331Z,101005.79
2019-04-20T06:42:08.429Z,101011.28
2019-04-20T06:44:30.356Z,101015.67
2019-04-20T06:47:03.094Z,101013.78
2019-04-20T06:49:32.053Z,101015.88
2019-04-20T06:52:23.468Z,101016.81
2019-04-20T06:58:49.845Z,101024.27
2019-04-20T07:22:19.755Z,101026.42
2019-04-20T07:24:40.297Z,101027.09
2019-04-20T07:27:06.467Z,101030.78
2019-04-20T07:29:41.164Z,101033.14
2019-04-20T07:32:01.452Z,101031.02
2019-04-20T07:34:40.160Z,101030.33
2019-04-20T07:39:48.260Z,101031.33
2019-04-20T07:42:23.041Z,101038.03
2019-04-20T07:44:55.469Z,101038.44
2019-04-20T07:47:33.080Z,101037.20
2019-04-20T07:49:52.021Z,101036.50
2019-04-20T07:52:06.190Z,101041.41
2019-04-20T07:55:22.555Z,101037.63
2019-04-20T07:57:27.198Z,101032.97
2019-04-20T07:59:59.037Z,101035.91
2019-04-20T08:02:51.735Z,101032.97
2019-04-20T08:05:18.210Z,101032.92
2019-04-20T08:07:43.335Z,101032.01
2019-04-20T08:10:12.222Z,101030.56
2019-04-20T08:13:03.379Z,101026.92
2019-04-20T08:16:33.118Z,101027.47
2019-04-20T08:18:02.750Z,101026.58
2019-04-20T08:20:37.063Z,101029.33
2019-04-20T08:23:05.064Z,101027.91
2019-04-20T08:25:28.061Z,101020.22
2019-04-20T08:27:54.961Z,101024.03
2019-04-20T08:31:02.439Z,101024.56
2019-04-20T08:33:34.984Z,101023.41
2019-04-20T08:36:11.872Z,101023.22
2019-04-20T08:41:09.681Z,101027.23
2019-04-20T08:43:47.172Z,101019.44
2019-04-20T08:46:17.722Z,101020.34
2019-04-20T08:48:46.734Z,101024.53
2019-04-20T08:51:14.581Z,101024.45
2019-04-20T08:53:47.080Z,101026.30
2019-04-20T08:56:27.159Z,101023.63
2019-04-20T08:58:43.425Z,101023.45
2019-04-20T09:01:18.412Z,101019.38
2019-04-20T09:03:56.479Z,101021.55
2019-04-20T09:06:33.699Z,101016.94
2019-04-20T09:08:57.751Z,101019.91
2019-04-20T09:11:41.513Z,101019.36
2019-04-20T09:31:39.513Z,101013.61
2019-04-20T09:34:14.446Z,101012.51
2019-04-20T09:36:44.602Z,101014.42
2019-04-20T09:39:14.981Z,101008.59
2019-04-20T09:41:59.139Z,101009.82
2019-04-20T09:44:08.927Z,101015.98
2019-04-20T09:46:45.270Z,101017.30
2019-04-20T09:49:20.124Z,101016.22
2019-04-20T09:51:57.480Z,101013.00
2019-04-20T09:54:32.573Z,101009.14
2019-04-20T09:57:04.365Z,101007.08
2019-04-20T09:59:33.548Z,101005.19
2019-04-20T10:01:59.129Z,101002.06
2019-04-20T10:04:19.588Z,100998.85
2019-04-20T10:06:49.682Z,100998.35
2019-04-20T10:09:26.363Z,100990.27
2019-04-20T10:11:50.660Z,100992.81
2019-04-20T10:14:20.191Z,100997.15
2019-04-20T10:16:49.768Z,100985.70
2019-04-20T10:19:27.805Z,100982.01
2019-04-20T10:21:50.802Z,100987.84
2019-04-20T10:24:20.876Z,100990.58
2019-04-20T10:26:50.597Z,100997.59
2019-04-20T10:29:20.086Z,100992.98
2019-04-20T10:31:56.665Z,100983.07
2019-04-20T10:34:23.933Z,100984.88
2019-04-20T10:36:53.643Z,100984.12
2019-04-20T10:39:24.907Z,100986.45
2019-04-20T10:41:58.977Z,100981.41
2019-04-20T10:44:27.159Z,100984.43
2019-04-20T10:46:58.671Z,100976.67
2019-04-20T10:49:29.139Z,100979.84
2019-04-20T10:51:59.989Z,100979.89
2019-04-20T10:54:30.295Z,100979.53
2019-04-20T10:57:06.078Z,100977.81
2019-04-20T10:59:35.622Z,100976.64
2019-04-20T11:02:05.721Z,100980.46
2019-04-20T11:04:35.253Z,100975.40
2019-04-20T11:07:05.603Z,100976.19
2019-04-20T11:09:40.707Z,100978.52
2019-04-20T11:12:10.698Z,100974.99
2019-04-20T11:14:43.459Z,100977.99
2019-04-20T11:17:12.268Z,100975.75
2019-04-20T11:19:43.357Z,100972.22
2019-04-20T11:22:14.497Z,100966.36
2019-04-20T11:24:44.144Z,100967.20
2019-04-20T11:27:14.267Z,100968.41
2019-04-20T11:29:44.417Z,100959.06
2019-04-20T11:32:14.635Z,100957.84
2019-04-20T11:34:45.422Z,100955.69
2019-04-20T11:37:15.341Z,100948.33
2019-04-20T11:39:45.645Z,100950.38
2019-04-20T11:42:15.759Z,100949.55
2019-04-20T11:44:46.722Z,100944.11
2019-04-20T11:47:16.761Z,100948.59
2019-04-20T11:49:46.383Z,100941.79
2019-04-20T11:52:19.714Z,100936.91
2019-04-20T11:54:48.502Z,100924.45
2019-04-20T11:57:19.576Z,100924.87
2019-04-20T11:59:49.211Z,100925.97
2019-04-20T12:02:40.906Z,100929.94
2019-04-20T12:05:23.941Z,100923.19
2019-04-20T12:08:03.040Z,100921.25
2019-04-20T12:10:35.026Z,100917.41
2019-04-20T12:13:24.799Z,100922.54
2019-04-20T12:15:55.659Z,100907.19
2019-04-20T12:18:25.487Z,100907.06
2019-04-20T12:21:14.803Z,100906.03
2019-04-20T12:23:44.615Z,100905.97
2019-04-20T12:26:16.090Z,100904.16
2019-04-20T12:28:45.576Z,100901.87
2019-04-20T12:31:20.293Z,100904.30
2019-04-20T12:33:46.518Z,100897.81
2019-04-20T12:36:16.475Z,100894.33
2019-04-20T12:38:46.421Z,100890.09
2019-04-20T12:41:16.187Z,100891.73
2019-04-20T12:43:56.029Z,100887.69
2019-04-20T12:46:26.777Z,100878.39
2019-04-20T12:48:57.795Z,100878.91
2019-04-20T12:51:33.912Z,100873.86
2019-04-20T12:54:10.787Z,100870.22
2019-04-20T12:56:40.528Z,100871.03
2019-04-20T12:59:11.530Z,100866.45
2019-04-20T13:01:41.637Z,100870.30
2019-04-20T13:04:12.101Z,100864.73
2019-04-20T13:06:42.796Z,100870.20
2019-04-20T13:09:14.470Z,100860.13
2019-04-20T13:12:01.118Z,100853.31
2019-04-20T13:15:04.682Z,100854.86
2019-04-20T13:17:38.004Z,100855.27
2019-04-20T13:23:26.850Z,100845.66
2019-04-20T13:25:57.126Z,100845.95
2019-04-20T13:28:26.977Z,100844.11
2019-04-20T13:30:57.764Z,100847.16
2019-04-20T13:33:27.366Z,100837.30
2019-04-20T13:35:56.785Z,100836.23
2019-04-20T13:38:26.304Z,100830.36
2019-04-20T13:40:55.841Z,100834.81
2019-04-20T13:43:25.867Z,100833.13
2019-04-20T13:45:55.334Z,100834.00
2019-04-20T13:48:24.871Z,100824.67
2019-04-20T13:50:54.344Z,100823.52
2019-04-20T13:53:23.711Z,100820.45
2019-04-20T13:55:54.050Z,100816.63
2019-04-20T13:58:41.039Z,100815.69
2019-04-20T14:01:12.605Z,100811.48
2019-04-20T14:03:42.907Z,100810.83
2019-04-20T14:06:33.117Z,100807.09
2019-04-20T14:09:05.559Z,100800.33
2019-04-20T14:11:35.718Z,100800.97
2019-04-20T14:14:08.119Z,100798.17
2019-04-20T14:16:37.237Z,100794.88
2019-04-20T14:19:07.239Z,100793.41
2019-04-20T14:21:36.706Z,100786.11
2019-04-20T14:24:06.796Z,100785.91
2019-04-20T14:26:40.363Z,100790.02
2019-04-20T14:29:07.469Z,100774.92
2019-04-20T14:31:37.513Z,100782.37
2019-04-20T14:34:07.111Z,100780.12
2019-04-20T14:36:37.100Z,100776.70
2019-04-20T14:39:10.111Z,100771.53
2019-04-20T14:41:40.372Z,100770.33
2019-04-20T14:44:10.072Z,100763.48
2019-04-20T14:46:40.055Z,100762.09
2019-04-20T14:49:10.439Z,100764.77
2019-04-20T14:51:40.039Z,100760.10
2019-04-20T14:54:09.844Z,100757.66
2019-04-20T14:56:43.458Z,100753.88
2019-04-20T14:59:15.695Z,100754.12
2019-04-20T15:01:50.398Z,100751.80
2019-04-20T15:04:23.200Z,100744.28
2019-04-20T15:06:52.675Z,100739.84
2019-04-20T15:09:22.119Z,100738.71
2019-04-20T15:11:52.707Z,100733.00
2019-04-20T15:14:22.814Z,100738.57
2019-04-20T15:16:52.869Z,100734.38
2019-04-20T15:19:25.304Z,100737.63
2019-04-20T15:21:59.882Z,100730.66
2019-04-20T15:24:29.444Z,100726.27
2019-04-20T15:27:00.256Z,100726.84
2019-04-20T15:29:30.521Z,100725.66
2019-04-20T15:32:00.107Z,100724.63
2019-04-20T15:34:30.835Z,100725.09
2019-04-20T15:37:00.333Z,100730.62
2019-04-20T15:39:30.541Z,100727.02
2019-04-20T15:42:01.249Z,100723.88
2019-04-20T15:44:31.446Z,100719.68
2019-04-20T15:47:01.449Z,100717.34
2019-04-20T15:49:31.506Z,100711.17
2019-04-20T15:52:01.787Z,100714.84
2019-04-20T15:54:31.659Z,100715.78
2019-04-20T15:57:07.450Z,100715.05
2019-04-20T15:59:32.721Z,100711.75
2019-04-20T16:02:21.056Z,100711.52
2019-04-20T16:04:58.434Z,100709.86
2019-04-20T16:07:32.901Z,100709.38
2019-04-20T16:09:59.142Z,100709.88
2019-04-20T16:12:29.137Z,100705.69
2019-04-20T16:14:59.667Z,100704.94
2019-04-20T16:17:36.844Z,100709.98
2019-04-20T16:20:08.339Z,100703.81
2019-04-20T16:22:32.480Z,100704.61
2019-04-20T16:25:15.472Z,100700.19
2019-04-20T16:27:45.636Z,100698.88
2019-04-20T16:30:15.818Z,100697.75
2019-04-20T16:32:45.171Z,100689.33
2019-04-20T16:35:16.220Z,100686.04
2019-04-20T16:37:46.473Z,100685.52
2019-04-20T16:40:17.602Z,100683.45
2019-04-20T16:42:48.007Z,100684.58
2019-04-20T16:45:19.051Z,100678.59
2019-04-20T16:47:48.627Z,100675.25
2019-04-20T16:50:19.311Z,100669.40
2019-04-20T16:52:48.928Z,100667.33
2019-04-20T16:55:18.872Z,100670.81
2019-04-20T16:57:51.208Z,100671.56
2019-04-20T17:00:23.261Z,100665.52
2019-04-20T17:05:15.196Z,100661.53
2019-04-20T17:07:47.027Z,100656.38
2019-04-20T17:10:18.190Z,100662.91
2019-04-20T17:12:48.072Z,100659.27
2019-04-20T17:15:19.530Z,100651.06
2019-04-20T17:17:50.250Z,100653.44
2019-04-20T17:20:21.998Z,100648.95
2019-04-20T17:22:52.390Z,100656.41
2019-04-20T17:25:22.012Z,100654.27
2019-04-20T17:27:59.613Z,100652.45
2019-04-20T17:30:31.553Z,100652.78
2019-04-20T17:35:52.804Z,100652.56
2019-04-20T17:38:11.671Z,100647.36
2019-04-20T17:41:00.034Z,100647.03
2019-04-20T17:43:23.272Z,100643.67
2019-04-20T17:45:54.329Z,100645.38
2019-04-20T17:48:28.281Z,100648.75
2019-04-20T17:51:15.392Z,100647.92
2019-04-20T17:53:44.641Z,100654.06
2019-04-20T17:56:10.317Z,100646.92
2019-04-20T17:58:41.359Z,100648.48
2019-04-20T18:01:24.325Z,100647.89
2019-04-20T18:04:24.442Z,100648.75
2019-04-20T18:06:41.641Z,100651.03
2019-04-20T18:09:05.341Z,100646.08
2019-04-20T18:11:27.017Z,100647.87
2019-04-20T18:14:04.474Z,100652.52
2019-04-20T18:16:52.458Z,100651.59
2019-04-20T18:19:22.903Z,100648.03
2019-04-20T18:21:51.819Z,100651.16
2019-04-20T18:24:46.388Z,100650.86
2019-04-20T18:27:14.210Z,100646.92
2019-04-20T18:29:45.479Z,100647.03
2019-04-20T18:31:59.547Z,100640.11
2019-04-20T18:34:31.915Z,100640.56
2019-04-20T18:37:07.732Z,100645.92
2019-04-20T18:39:37.430Z,100646.56
2019-04-20T18:42:12.983Z,100647.30
2019-04-20T18:44:57.150Z,100648.42
2019-04-20T18:47:31.871Z,100649.47
2019-04-20T18:49:48.842Z,100648.94
2019-04-20T18:52:11.485Z,100646.83
2019-04-20T18:54:44.908Z,100648.19
2019-04-20T18:57:18.048Z,100649.28
2019-04-20T18:59:50.482Z,100652.64
2019-04-20T19:02:22.685Z,100656.89
2019-04-20T19:04:48.086Z,100653.95
2019-04-20T19:07:17.661Z,100658.88
2019-04-20T19:09:53.278Z,100662.38
2019-04-20T19:12:31.208Z,100664.80
2019-04-20T19:15:28.016Z,100658.76
2019-04-20T19:17:53.791Z,100663.66
2019-04-20T19:20:23.316Z,100660.08
2019-04-20T19:22:53.243Z,100668.05
2019-04-20T19:25:27.351Z,100669.33
2019-04-20T19:27:56.579Z,100670.84
2019-04-20T19:30:35.387Z,100662.37
2019-04-20T19:33:16.265Z,100671.97
2019-04-20T19:35:41.654Z,100671.03
2019-04-20T19:38:09.598Z,100672.80
2019-04-20T19:40:45.742Z,100681.44
2019-04-20T19:43:15.569Z,100675.05
2019-04-20T19:46:05.606Z,100676.69
2019-04-20T19:48:22.101Z,100679.86
2019-04-20T19:50:58.894Z,100677.17
2019-04-20T19:53:33.544Z,100678.55
2019-04-20T19:55:52.979Z,100682.78
2019-04-20T19:58:26.417Z,100680.91
2019-04-20T20:00:53.419Z,100681.94
2019-04-20T20:03:21.971Z,100680.28
2019-04-20T20:05:54.830Z,100679.31
2019-04-20T20:08:26.830Z,100683.33
2019-04-20T20:10:57.807Z,100679.95
2019-04-20T20:13:36.143Z,100677.63
2019-04-20T20:16:08.931Z,100673.36
2019-04-20T20:18:45.262Z,100675.05
2019-04-20T20:21:19.084Z,100677.69
2019-04-20T20:23:32.149Z,100679.39
2019-04-20T20:26:05.065Z,100681.83
2019-04-20T20:28:43.556Z,100684.31
2019-04-20T20:31:17.060Z,100683.30
2019-04-20T20:33:51.070Z,100683.38
2019-04-20T20:36:12.691Z,100679.78
2019-04-20T20:38:44.855Z,100680.36
2019-04-20T20:41:17.927Z,100684.63
2019-04-20T20:43:52.302Z,100680.81
2019-04-20T20:46:24.575Z,100685.47
2019-04-20T20:49:04.936Z,100682.23
2019-04-20T20:51:39.427Z,100684.66
2019-04-20T20:53:56.467Z,100686.02
2019-04-20T20:56:24.359Z,100682.82
2019-04-20T20:58:59.518Z,100687.33
2019-04-20T21:01:25.357Z,100687.55
2019-04-20T21:03:53.019Z,100693.22
2019-04-20T21:06:22.510Z,100690.45
2019-04-20T21:08:54.889Z,100696.80
2019-04-20T21:11:27.266Z,100695.00
2019-04-20T21:13:55.748Z,100694.67
2019-04-20T21:16:41.083Z,100699.28
2019-04-20T21:19:21.401Z,100695.55
2019-04-20T21:21:49.567Z,100695.28
2019-04-20T21:24:15.976Z,100688.88
2019-04-20T21:26:44.312Z,100694.75
2019-04-20T21:29:14.002Z,100697.20
2019-04-20T21:31:54.450Z,100694.08
2019-04-20T21:34:18.608Z,100693.03
2019-04-20T21:36:47.172Z,100693.92
2019-04-20T21:39:32.409Z,100689.34
2019-04-20T21:41:56.892Z,100689.70
2019-04-20T21:44:25.260Z,100688.64
2019-04-20T21:46:54.587Z,100686.36
2019-04-20T21:49:37.602Z,100684.05
2019-04-20T21:52:00.882Z,100685.59
2019-04-20T21:54:25.449Z,100683.57
2019-04-20T21:57:01.630Z,100680.78
2019-04-20T21:59:32.046Z,100682.99
2019-04-20T22:02:05.333Z,100680.81
2019-04-20T22:04:29.170Z,100681.48
2019-04-20T22:06:58.756Z,100676.32
2019-04-20T22:09:34.524Z,100677.28
2019-04-20T22:12:00.155Z,100678.07
2019-04-20T22:14:33.623Z,100678.79
2019-04-20T22:17:03.627Z,100677.10
2019-04-20T22:19:41.964Z,100678.57
2019-04-20T22:22:15.148Z,100677.52
2019-04-20T22:24:53.943Z,100671.02
2019-04-20T22:27:30.065Z,100670.53
2019-04-20T22:29:57.568Z,100669.48
2019-04-20T22:32:28.121Z,100670.79
2019-04-20T22:35:04.107Z,100673.65
2019-04-20T22:37:32.075Z,100670.25
2019-04-20T22:40:03.059Z,100666.86
2019-04-20T22:42:40.122Z,100668.57
2019-04-20T22:45:09.840Z,100668.71
2019-04-20T22:47:39.030Z,100661.91
2019-04-20T22:50:25.477Z,100659.39
2019-04-20T22:52:48.653Z,100658.59
2019-04-20T22:55:38.940Z,100657.73
2019-04-20T22:57:55.107Z,100661.50
2019-04-20T23:00:29.280Z,100656.50
2019-04-20T23:02:47.132Z,100650.91
2019-04-20T23:05:16.544Z,100653.27
2019-04-20T23:07:46.647Z,100654.47
2019-04-20T23:10:19.126Z,100647.81
2019-04-20T23:12:51.384Z,100648.87
2019-04-20T23:15:20.426Z,100649.25
2019-04-20T23:17:52.076Z,100643.33
2019-04-20T23:20:26.698Z,100647.27
2019-04-20T23:22:53.052Z,100634.06
2019-04-20T23:25:22.949Z,100633.34
2019-04-20T23:28:02.844Z,100631.94
2019-04-20T23:30:28.973Z,100630.31
2019-04-20T23:32:56.015Z,100626.00
2019-04-20T23:35:27.064Z,100623.13
2019-04-20T23:38:04.333Z,100619.52
2019-04-20T23:40:29.798Z,100620.69
2019-04-20T23:43:23.401Z,100617.02
2019-04-20T23:45:54.827Z,100613.83
2019-04-20T23:48:33.716Z,100609.78
2019-04-20T23:51:17.446Z,100616.43
2019-04-20T23:53:43.775Z,100611.92
2019-04-20T23:56:03.652Z,100607.27
2019-04-20T23:58:40.616Z,100608.35
